createdAt,value
2018-06-22T00:00:13.867Z,967.50
2018-06-22T00:01:13.810Z,967.54
2018-06-22T00:02:13.743Z,967.52
2018-06-22T00:03:13.686Z,967.48
2018-06-22T00:04:13.621Z,967.51
2018-06-22T00:05:13.559Z,967.51
2018-06-22T00:06:13.496Z,967.47
2018-06-22T00:07:13.430Z,967.49
2018-06-22T00:08:13.373Z,967.49
2018-06-22T00:09:13.315Z,967.50
2018-06-22T00:10:13.248Z,967.50
2018-06-22T00:11:13.189Z,967.53
2018-06-22T00:12:13.125Z,967.52
2018-06-22T00:13:13.064Z,967.53
2018-06-22T00:14:13.001Z,967.51
2018-06-22T00:15:12.938Z,967.52
2018-06-22T00:16:12.891Z,967.55
2018-06-22T00:17:12.816Z,967.56
2018-06-22T00:18:12.755Z,967.52
2018-06-22T00:19:12.691Z,967.54
2018-06-22T00:20:12.636Z,967.54
2018-06-22T00:21:12.576Z,967.54
2018-06-22T00:22:12.508Z,967.60
2018-06-22T00:23:12.446Z,967.59
2018-06-22T00:24:12.388Z,967.64
2018-06-22T00:25:12.326Z,967.67
2018-06-22T00:26:12.262Z,967.66
2018-06-22T00:27:12.196Z,967.69
2018-06-22T00:28:12.135Z,967.74
2018-06-22T00:29:12.073Z,967.71
2018-06-22T00:30:12.011Z,967.68
2018-06-22T00:31:11.949Z,967.72
2018-06-22T00:32:11.888Z,967.73
2018-06-22T00:33:11.824Z,967.74
2018-06-22T00:34:11.762Z,967.76
2018-06-22T00:35:11.702Z,967.77
2018-06-22T00:36:11.640Z,967.74
2018-06-22T00:37:11.576Z,967.73
2018-06-22T00:38:11.528Z,967.77
2018-06-22T00:39:11.453Z,967.75
2018-06-22T00:40:11.391Z,967.71
2018-06-22T00:41:11.330Z,967.69
2018-06-22T00:42:11.266Z,967.69
2018-06-22T00:43:11.204Z,967.69
2018-06-22T00:44:11.148Z,967.66
2018-06-22T00:45:11.082Z,967.68
2018-06-22T00:46:11.018Z,967.66
2018-06-22T00:47:10.955Z,967.68
2018-06-22T00:48:10.896Z,967.70
2018-06-22T00:49:10.834Z,967.70
2018-06-22T00:50:10.772Z,967.72
2018-06-22T00:51:10.713Z,967.72
2018-06-22T00:52:10.648Z,967.73
2018-06-22T00:53:10.583Z,967.76
2018-06-22T00:54:10.523Z,967.77
2018-06-22T00:55:10.460Z,967.77
2018-06-22T00:56:10.399Z,967.76
2018-06-22T00:57:10.335Z,967.78
2018-06-22T00:58:10.273Z,967.78
2018-06-22T00:59:10.215Z,967.78
2018-06-22T01:00:10.151Z,967.82
2018-06-22T01:01:10.088Z,967.80
2018-06-22T01:02:10.022Z,967.80
2018-06-22T01:03:09.967Z,967.80
2018-06-22T01:04:09.916Z,967.83
2018-06-22T01:05:09.833Z,967.82
2018-06-22T01:06:09.778Z,967.83
2018-06-22T01:07:09.720Z,967.82
2018-06-22T01:08:09.646Z,967.85
2018-06-22T01:09:09.591Z,967.82
2018-06-22T01:10:09.527Z,967.85
2018-06-22T01:11:09.463Z,967.86
2018-06-22T01:12:09.403Z,967.85
2018-06-22T01:13:09.340Z,967.79
2018-06-22T01:14:09.274Z,967.83
2018-06-22T01:15:09.217Z,967.82
2018-06-22T01:16:09.206Z,967.81
2018-06-22T01:17:09.090Z,967.85
2018-06-22T01:18:09.032Z,967.84
2018-06-22T01:19:08.967Z,967.87
2018-06-22T01:20:08.906Z,967.84
2018-06-22T01:21:08.843Z,967.86
2018-06-22T01:22:08.785Z,967.86
2018-06-22T01:23:08.718Z,967.87
2018-06-22T01:24:08.657Z,967.91
2018-06-22T01:25:08.596Z,967.93
2018-06-22T01:26:08.533Z,967.94
2018-06-22T01:27:08.469Z,967.96
2018-06-22T01:28:08.405Z,967.92
2018-06-22T01:29:08.347Z,967.94
2018-06-22T01:30:08.282Z,967.95
2018-06-22T01:31:08.219Z,967.92
2018-06-22T01:32:08.162Z,967.90
2018-06-22T01:33:08.096Z,967.97
2018-06-22T01:34:08.034Z,967.93
2018-06-22T01:35:07.969Z,967.94
2018-06-22T01:36:07.911Z,967.97
2018-06-22T01:37:07.848Z,967.94
2018-06-22T01:38:07.779Z,967.96
2018-06-22T01:39:07.725Z,967.99
2018-06-22T01:40:07.660Z,967.96
2018-06-22T01:41:07.596Z,968.02
2018-06-22T01:42:07.530Z,968.02
2018-06-22T01:43:07.474Z,968.01
2018-06-22T01:44:07.421Z,968.05
2018-06-22T01:45:07.348Z,968.02
2018-06-22T01:46:07.285Z,968.00
2018-06-22T01:47:07.222Z,968.01
2018-06-22T01:48:07.157Z,968.01
2018-06-22T01:49:07.099Z,968.02
2018-06-22T01:50:07.039Z,968.06
2018-06-22T01:51:06.973Z,968.03
2018-06-22T01:52:06.910Z,968.05
2018-06-22T01:53:06.861Z,968.04
2018-06-22T01:54:06.784Z,968.03
2018-06-22T01:55:06.723Z,968.03
2018-06-22T01:56:06.660Z,968.05
2018-06-22T01:57:06.599Z,968.05
2018-06-22T01:58:06.537Z,968.06
2018-06-22T01:59:06.477Z,968.09
2018-06-22T02:00:06.412Z,968.11
2018-06-22T02:01:06.351Z,968.07
2018-06-22T02:02:06.285Z,968.09
2018-06-22T02:03:06.224Z,968.09
2018-06-22T02:04:06.163Z,968.08
2018-06-22T02:05:06.099Z,968.08
2018-06-22T02:06:06.038Z,968.08
2018-06-22T02:07:05.996Z,968.05
2018-06-22T02:08:05.913Z,968.10
2018-06-22T02:09:05.856Z,968.06
2018-06-22T02:10:05.790Z,968.09
2018-06-22T02:11:05.726Z,968.09
2018-06-22T02:12:05.673Z,968.12
2018-06-22T02:13:05.608Z,968.13
2018-06-22T02:14:05.538Z,968.06
2018-06-22T02:15:05.480Z,968.11
2018-06-22T02:16:05.409Z,968.08
2018-06-22T02:17:05.350Z,968.16
2018-06-22T02:18:05.299Z,968.11
2018-06-22T02:19:05.226Z,968.11
2018-06-22T02:20:05.161Z,968.15
2018-06-22T02:21:05.100Z,968.15
2018-06-22T02:22:05.045Z,968.15
2018-06-22T02:23:04.975Z,968.12
2018-06-22T02:24:04.930Z,968.11
2018-06-22T02:25:04.850Z,968.12
2018-06-22T02:26:04.788Z,968.08
2018-06-22T02:27:04.736Z,968.11
2018-06-22T02:28:04.662Z,968.10
2018-06-22T02:29:04.605Z,968.11
2018-06-22T02:30:04.546Z,968.12
2018-06-22T02:31:04.475Z,968.13
2018-06-22T02:32:04.412Z,968.11
2018-06-22T02:33:04.349Z,968.12
2018-06-22T02:34:04.286Z,968.13
2018-06-22T02:35:04.225Z,968.09
2018-06-22T02:36:04.160Z,968.14
2018-06-22T02:37:04.101Z,968.14
2018-06-22T02:38:04.034Z,968.09
2018-06-22T02:39:03.975Z,968.13
2018-06-22T02:40:03.912Z,968.10
2018-06-22T02:41:03.852Z,968.13
2018-06-22T02:42:03.785Z,968.10
2018-06-22T02:43:03.721Z,968.12
2018-06-22T02:44:03.665Z,968.13
2018-06-22T02:45:03.599Z,968.17
2018-06-22T02:46:03.536Z,968.16
2018-06-22T02:47:03.472Z,968.19
2018-06-22T02:48:03.409Z,968.18
2018-06-22T02:49:03.347Z,968.20
2018-06-22T02:50:03.285Z,968.18
2018-06-22T02:51:03.220Z,968.19
2018-06-22T02:52:03.159Z,968.17
2018-06-22T02:53:03.095Z,968.18
2018-06-22T02:54:03.032Z,968.17
2018-06-22T02:55:02.970Z,968.20
2018-06-22T02:56:02.907Z,968.19
2018-06-22T02:57:02.858Z,968.21
2018-06-22T02:58:02.784Z,968.17
2018-06-22T02:59:02.719Z,968.20
2018-06-22T03:00:02.659Z,968.21
2018-06-22T03:01:02.609Z,968.23
2018-06-22T03:02:02.532Z,968.23
2018-06-22T03:03:02.472Z,968.23
2018-06-22T03:04:02.406Z,968.26
2018-06-22T03:05:02.344Z,968.28
2018-06-22T03:06:02.281Z,968.25
2018-06-22T03:07:02.220Z,968.28
2018-06-22T03:08:02.154Z,968.24
2018-06-22T03:09:02.104Z,968.25
2018-06-22T03:10:02.029Z,968.29
2018-06-22T03:11:01.965Z,968.26
2018-06-22T03:12:01.907Z,968.28
2018-06-22T03:13:01.863Z,968.27
2018-06-22T03:14:01.777Z,968.27
2018-06-22T03:15:01.714Z,968.27
2018-06-22T03:16:01.652Z,968.29
2018-06-22T03:17:01.590Z,968.31
2018-06-22T03:18:01.530Z,968.33
2018-06-22T03:19:01.465Z,968.32
2018-06-22T03:20:01.420Z,968.32
2018-06-22T03:21:01.341Z,968.29
2018-06-22T03:22:01.275Z,968.32
2018-06-22T03:23:01.216Z,968.32
2018-06-22T03:24:01.156Z,968.34
2018-06-22T03:25:01.088Z,968.38
2018-06-22T03:26:01.024Z,968.38
2018-06-22T03:27:00.972Z,968.40
2018-06-22T03:28:00.905Z,968.39
2018-06-22T03:29:00.840Z,968.39
2018-06-22T03:30:00.793Z,968.40
2018-06-22T03:31:00.708Z,968.41
2018-06-22T03:32:00.652Z,968.42
2018-06-22T03:33:00.583Z,968.46
2018-06-22T03:34:00.518Z,968.47
2018-06-22T03:35:00.457Z,968.48
2018-06-22T03:36:00.396Z,968.44
2018-06-22T03:37:00.333Z,968.47
2018-06-22T03:38:00.270Z,968.48
2018-06-22T03:39:00.212Z,968.49
2018-06-22T03:40:00.151Z,968.53
2018-06-22T03:41:00.083Z,968.54
2018-06-22T03:42:00.024Z,968.53
2018-06-22T03:42:59.955Z,968.56
2018-06-22T03:43:59.891Z,968.57
2018-06-22T03:44:59.829Z,968.56
2018-06-22T03:45:59.767Z,968.55
2018-06-22T03:46:59.707Z,968.56
2018-06-22T03:47:59.641Z,968.56
2018-06-22T03:48:59.580Z,968.54
2018-06-22T03:49:59.514Z,968.51
2018-06-22T03:50:59.452Z,968.47
2018-06-22T03:51:59.404Z,968.51
2018-06-22T03:52:59.324Z,968.46
2018-06-22T03:53:59.266Z,968.45
2018-06-22T03:54:59.210Z,968.42
2018-06-22T03:55:59.138Z,968.44
2018-06-22T03:56:59.075Z,968.44
2018-06-22T03:57:59.012Z,968.43
2018-06-22T03:58:58.948Z,968.44
2018-06-22T03:59:58.887Z,968.49
2018-06-22T04:00:58.837Z,968.48
2018-06-22T04:01:58.760Z,968.49
2018-06-22T04:02:58.696Z,968.45
2018-06-22T04:03:58.635Z,968.46
2018-06-22T04:04:58.577Z,968.47
2018-06-22T04:05:58.652Z,968.48
2018-06-22T04:06:58.446Z,968.51
2018-06-22T04:07:58.386Z,968.54
2018-06-22T04:08:58.329Z,968.52
2018-06-22T04:09:58.258Z,968.52
2018-06-22T04:10:58.198Z,968.58
2018-06-22T04:11:58.134Z,968.56
2018-06-22T04:12:58.075Z,968.56
2018-06-22T04:13:58.004Z,968.62
2018-06-22T04:14:57.939Z,968.58
2018-06-22T04:15:57.903Z,968.57
2018-06-22T04:16:57.817Z,968.54
2018-06-22T04:17:57.751Z,968.60
2018-06-22T04:18:57.712Z,968.54
2018-06-22T04:19:57.631Z,968.56
2018-06-22T04:20:57.567Z,968.53
2018-06-22T04:21:57.504Z,968.55
2018-06-22T04:22:57.440Z,968.55
2018-06-22T04:23:57.379Z,968.53
2018-06-22T04:24:57.331Z,968.54
2018-06-22T04:25:57.252Z,968.57
2018-06-22T04:26:57.193Z,968.56
2018-06-22T04:27:57.127Z,968.55
2018-06-22T04:28:57.067Z,968.51
2018-06-22T04:29:57.009Z,968.51
2018-06-22T04:30:56.939Z,968.51
2018-06-22T04:31:56.876Z,968.49
2018-06-22T04:32:56.815Z,968.55
2018-06-22T04:33:56.756Z,968.53
2018-06-22T04:34:56.688Z,968.55
2018-06-22T04:35:56.627Z,968.57
2018-06-22T04:36:56.563Z,968.51
2018-06-22T04:37:56.498Z,968.55
2018-06-22T04:38:56.436Z,968.58
2018-06-22T04:39:56.375Z,968.55
2018-06-22T04:40:56.312Z,968.56
2018-06-22T04:41:56.252Z,968.53
2018-06-22T04:42:56.185Z,968.53
2018-06-22T04:43:56.140Z,968.53
2018-06-22T04:44:56.057Z,968.54
2018-06-22T04:45:55.996Z,968.51
2018-06-22T04:46:55.933Z,968.56
2018-06-22T04:47:55.870Z,968.60
2018-06-22T04:48:55.812Z,968.56
2018-06-22T04:49:55.745Z,968.56
2018-06-22T04:50:55.683Z,968.60
2018-06-22T04:51:55.620Z,968.55
2018-06-22T04:52:55.559Z,968.62
2018-06-22T04:53:55.494Z,968.57
2018-06-22T04:54:55.431Z,968.58
2018-06-22T04:55:55.371Z,968.59
2018-06-22T04:56:55.309Z,968.63
2018-06-22T04:57:55.242Z,968.60
2018-06-22T04:58:55.181Z,968.64
2018-06-22T04:59:55.117Z,968.60
2018-06-22T05:00:55.065Z,968.58
2018-06-22T05:01:54.988Z,968.61
2018-06-22T05:02:54.930Z,968.64
2018-06-22T05:03:54.887Z,968.65
2018-06-22T05:04:54.823Z,968.63
2018-06-22T05:05:54.740Z,968.62
2018-06-22T05:06:54.685Z,968.65
2018-06-22T05:07:54.615Z,968.65
2018-06-22T05:08:54.553Z,968.64
2018-06-22T05:09:54.486Z,968.64
2018-06-22T05:10:54.426Z,968.65
2018-06-22T05:11:54.364Z,968.62
2018-06-22T05:12:54.300Z,968.64
2018-06-22T05:13:54.236Z,968.62
2018-06-22T05:14:54.174Z,968.60
2018-06-22T05:15:54.112Z,968.63
2018-06-22T05:16:54.059Z,968.64
2018-06-22T05:17:53.986Z,968.64
2018-06-22T05:18:53.924Z,968.69
2018-06-22T05:19:53.871Z,968.72
2018-06-22T05:20:53.794Z,968.70
2018-06-22T05:21:53.750Z,968.72
2018-06-22T05:22:53.679Z,968.71
2018-06-22T05:23:53.606Z,968.67
2018-06-22T05:24:53.593Z,968.70
2018-06-22T05:25:53.484Z,968.67
2018-06-22T05:26:53.421Z,968.69
2018-06-22T05:27:53.356Z,968.67
2018-06-22T05:28:53.297Z,968.66
2018-06-22T05:29:53.234Z,968.69
2018-06-22T05:30:53.170Z,968.67
2018-06-22T05:31:53.108Z,968.70
2018-06-22T05:32:53.044Z,968.64
2018-06-22T05:33:52.983Z,968.66
2018-06-22T05:34:52.915Z,968.64
2018-06-22T05:35:52.914Z,968.60
2018-06-22T05:36:52.793Z,968.61
2018-06-22T05:37:52.729Z,968.59
2018-06-22T05:38:52.692Z,968.58
2018-06-22T05:39:52.614Z,968.53
2018-06-22T05:40:52.542Z,968.58
2018-06-22T05:41:52.480Z,968.62
2018-06-22T05:42:52.446Z,968.62
2018-06-22T05:43:52.355Z,968.65
2018-06-22T05:44:52.292Z,968.63
2018-06-22T05:45:52.229Z,968.68
2018-06-22T05:46:52.169Z,968.66
2018-06-22T05:47:52.102Z,968.68
2018-06-22T05:48:52.044Z,968.70
2018-06-22T05:49:51.977Z,968.71
2018-06-22T05:50:51.956Z,968.68
2018-06-22T05:51:51.849Z,968.65
2018-06-22T05:52:51.789Z,968.66
2018-06-22T05:53:51.729Z,968.64
2018-06-22T05:54:51.662Z,968.62
2018-06-22T05:55:51.606Z,968.61
2018-06-22T05:56:51.567Z,968.61
2018-06-22T05:57:51.477Z,968.63
2018-06-22T05:58:51.414Z,968.63
2018-06-22T05:59:51.351Z,968.59
2018-06-22T06:00:51.288Z,968.62
2018-06-22T06:01:51.225Z,968.60
2018-06-22T06:02:51.163Z,968.63
2018-06-22T06:03:51.101Z,968.62
2018-06-22T06:04:51.037Z,968.66
2018-06-22T06:05:50.975Z,968.59
2018-06-22T06:06:50.911Z,968.66
2018-06-22T06:07:50.856Z,968.62
2018-06-22T06:08:50.788Z,968.59
2018-06-22T06:09:50.733Z,968.61
2018-06-22T06:10:50.661Z,968.56
2018-06-22T06:11:50.599Z,968.57
2018-06-22T06:12:50.538Z,968.55
2018-06-22T06:13:50.481Z,968.56
2018-06-22T06:14:50.426Z,968.57
2018-06-22T06:15:50.349Z,968.54
2018-06-22T06:16:50.283Z,968.55
2018-06-22T06:17:50.224Z,968.54
2018-06-22T06:18:50.161Z,968.53
2018-06-22T06:19:50.101Z,968.50
2018-06-22T06:20:50.039Z,968.50
2018-06-22T06:21:49.974Z,968.51
2018-06-22T06:22:49.910Z,968.45
2018-06-22T06:23:49.849Z,968.45
2018-06-22T06:24:49.790Z,968.49
2018-06-22T06:25:49.721Z,968.46
2018-06-22T06:26:49.671Z,968.49
2018-06-22T06:27:49.598Z,968.43
2018-06-22T06:28:49.537Z,968.40
2018-06-22T06:29:49.474Z,968.42
2018-06-22T06:30:49.411Z,968.43
2018-06-22T06:31:49.354Z,968.37
2018-06-22T06:32:49.288Z,968.35
2018-06-22T06:33:49.228Z,968.36
2018-06-22T06:34:49.164Z,968.36
2018-06-22T06:35:49.102Z,968.29
2018-06-22T06:36:49.038Z,968.34
2018-06-22T06:37:48.979Z,968.35
2018-06-22T06:38:48.915Z,968.35
2018-06-22T06:39:48.848Z,968.33
2018-06-22T06:40:48.788Z,968.39
2018-06-22T06:41:48.761Z,968.32
2018-06-22T06:42:48.671Z,968.33
2018-06-22T06:43:48.602Z,968.35
2018-06-22T06:44:48.540Z,968.34
2018-06-22T06:45:48.476Z,968.31
2018-06-22T06:46:48.422Z,968.38
2018-06-22T06:47:48.352Z,968.32
2018-06-22T06:48:48.290Z,968.34
2018-06-22T06:49:48.232Z,968.32
2018-06-22T06:50:48.169Z,968.36
2018-06-22T06:51:48.104Z,968.32
2018-06-22T06:52:48.042Z,968.35
2018-06-22T06:53:47.978Z,968.33
2018-06-22T06:54:47.942Z,968.33
2018-06-22T06:55:47.855Z,968.34
2018-06-22T06:56:47.808Z,968.35
2018-06-22T06:57:47.730Z,968.32
2018-06-22T06:58:47.669Z,968.31
2018-06-22T06:59:47.607Z,968.30
2018-06-22T07:00:47.547Z,968.37
2018-06-22T07:01:47.503Z,968.39
2018-06-22T07:02:47.429Z,968.41
2018-06-22T07:03:47.358Z,968.42
2018-06-22T07:04:47.298Z,968.40
2018-06-22T07:05:47.236Z,968.38
2018-06-22T07:06:47.185Z,968.45
2018-06-22T07:07:47.111Z,968.41
2018-06-22T07:08:47.052Z,968.38
2018-06-22T07:09:46.988Z,968.34
2018-06-22T07:10:46.927Z,968.40
2018-06-22T07:11:46.863Z,968.34
2018-06-22T07:12:46.803Z,968.34
2018-06-22T07:13:46.744Z,968.42
2018-06-22T07:14:46.678Z,968.36
2018-06-22T07:15:46.615Z,968.31
2018-06-22T07:16:46.559Z,968.41
2018-06-22T07:17:46.497Z,968.47
2018-06-22T07:18:46.430Z,968.42
2018-06-22T07:19:46.367Z,968.56
2018-06-22T07:20:46.306Z,968.53
2018-06-22T07:21:46.244Z,968.55
2018-06-22T07:22:46.182Z,968.46
2018-06-22T07:23:46.120Z,968.47
2018-06-22T07:24:46.056Z,968.49
2018-06-22T07:25:45.995Z,968.41
2018-06-22T07:26:45.932Z,968.44
2018-06-22T07:27:45.874Z,968.39
2018-06-22T07:28:45.812Z,968.39
2018-06-22T07:29:46.074Z,968.34
2018-06-22T07:30:45.792Z,968.33
2018-06-22T07:31:45.628Z,968.33
2018-06-22T07:32:45.569Z,968.34
2018-06-22T07:33:45.520Z,968.40
2018-06-22T07:34:45.479Z,968.41
2018-06-22T07:35:45.375Z,968.31
2018-06-22T07:36:45.312Z,968.31
2018-06-22T07:37:45.259Z,968.34
2018-06-22T07:38:45.211Z,968.42
2018-06-22T07:39:45.137Z,968.40
2018-06-22T07:40:45.071Z,968.43
2018-06-22T07:41:45.015Z,968.39
2018-06-22T07:42:44.942Z,968.38
2018-06-22T07:43:44.885Z,968.39
2018-06-22T07:44:44.839Z,968.37
2018-06-22T07:45:44.762Z,968.42
2018-06-22T07:46:44.715Z,968.42
2018-06-22T07:47:44.644Z,968.44
2018-06-22T07:48:44.577Z,968.52
2018-06-22T07:49:44.537Z,968.52
2018-06-22T07:50:44.458Z,968.52
2018-06-22T07:51:44.390Z,968.48
2018-06-22T07:52:44.346Z,968.45
2018-06-22T07:53:44.269Z,968.50
2018-06-22T07:54:44.210Z,968.42
2018-06-22T07:55:44.150Z,968.41
2018-06-22T07:56:44.086Z,968.35
2018-06-22T07:57:44.027Z,968.38
2018-06-22T07:58:43.964Z,968.31
2018-06-22T07:59:43.902Z,968.35
2018-06-22T08:00:43.840Z,968.39
2018-06-22T08:01:43.780Z,968.45
2018-06-22T08:02:43.718Z,968.43
2018-06-22T08:03:43.658Z,968.36
2018-06-22T08:04:43.599Z,968.42
2018-06-22T08:05:43.536Z,968.37
2018-06-22T08:06:43.473Z,968.33
2018-06-22T08:07:43.413Z,968.34
2018-06-22T08:08:43.350Z,968.35
2018-06-22T08:09:43.288Z,968.36
2018-06-22T08:10:43.230Z,968.33
2018-06-22T08:11:43.162Z,968.33
2018-06-22T08:12:43.104Z,968.39
2018-06-22T08:13:43.040Z,968.37
2018-06-22T08:14:42.984Z,968.39
2018-06-22T08:15:42.919Z,968.47
2018-06-22T08:16:42.861Z,968.46
2018-06-22T08:17:42.872Z,968.41
2018-06-22T08:18:42.739Z,968.44
2018-06-22T08:19:42.703Z,968.36
2018-06-22T08:20:42.633Z,968.44
2018-06-22T08:21:42.553Z,968.49
2018-06-22T08:22:42.510Z,968.48
2018-06-22T08:23:42.433Z,968.54
2018-06-22T08:24:42.370Z,968.57
2018-06-22T08:25:42.313Z,968.49
2018-06-22T08:26:42.262Z,968.53
2018-06-22T08:27:42.182Z,968.45
2018-06-22T08:28:42.127Z,968.44
2018-06-22T08:29:42.078Z,968.64
2018-06-22T08:30:42.001Z,968.60
2018-06-22T08:31:41.953Z,968.63
2018-06-22T08:32:41.882Z,968.58
2018-06-22T08:33:41.819Z,968.65
2018-06-22T08:34:41.766Z,968.67
2018-06-22T08:35:41.708Z,968.66
2018-06-22T08:36:41.635Z,968.65
2018-06-22T08:37:41.575Z,968.58
2018-06-22T08:38:41.522Z,968.60
2018-06-22T08:39:41.451Z,968.64
2018-06-22T08:40:41.392Z,968.66
2018-06-22T08:41:41.364Z,968.66
2018-06-22T08:42:41.267Z,968.75
2018-06-22T08:43:41.208Z,968.73
2018-06-22T08:44:41.148Z,968.73
2018-06-22T08:45:41.087Z,968.68
2018-06-22T08:46:41.046Z,968.79
2018-06-22T08:47:40.989Z,968.82
2018-06-22T08:48:40.901Z,968.79
2018-06-22T08:49:40.840Z,968.82
2018-06-22T08:50:40.779Z,968.85
2018-06-22T08:51:40.720Z,968.80
2018-06-22T08:52:40.661Z,968.79
2018-06-22T08:53:40.597Z,968.83
2018-06-22T08:54:40.542Z,968.75
2018-06-22T08:55:40.485Z,968.81
2018-06-22T08:56:40.415Z,968.81
2018-06-22T08:57:40.354Z,968.79
2018-06-22T08:58:40.291Z,968.74
2018-06-22T08:59:40.229Z,968.73
2018-06-22T09:00:40.173Z,968.70
2018-06-22T09:01:40.107Z,968.69
2018-06-22T09:02:40.047Z,968.69
2018-06-22T09:03:39.985Z,968.68
2018-06-22T09:04:39.927Z,968.68
2018-06-22T09:05:39.875Z,968.78
2018-06-22T09:06:39.805Z,968.74
2018-06-22T09:07:39.743Z,968.78
2018-06-22T09:08:39.682Z,968.78
2018-06-22T09:09:39.622Z,968.83
2018-06-22T09:10:39.559Z,968.79
2018-06-22T09:11:39.498Z,968.84
2018-06-22T09:12:39.495Z,968.84
2018-06-22T09:13:39.379Z,968.86
2018-06-22T09:14:39.318Z,968.90
2018-06-22T09:15:39.262Z,968.94
2018-06-22T09:16:39.195Z,968.96
2018-06-22T09:17:39.136Z,968.97
2018-06-22T09:18:39.093Z,969.05
2018-06-22T09:19:39.026Z,969.09
2018-06-22T09:20:38.959Z,969.08
2018-06-22T09:21:38.896Z,969.01
2018-06-22T09:22:38.837Z,969.01
2018-06-22T09:23:38.779Z,968.96
2018-06-22T09:24:38.733Z,968.90
2018-06-22T09:25:38.663Z,968.94
2018-06-22T09:26:38.605Z,969.21
2018-06-22T09:27:38.547Z,969.13
2018-06-22T09:28:38.493Z,969.19
2018-06-22T09:29:38.432Z,969.20
2018-06-22T09:30:38.377Z,969.20
2018-06-22T09:31:38.322Z,969.33
2018-06-22T09:32:38.263Z,969.26
2018-06-22T09:33:38.206Z,969.27
2018-06-22T09:34:38.149Z,969.22
2018-06-22T09:35:38.094Z,969.38
2018-06-22T09:36:38.074Z,969.45
2018-06-22T09:37:37.985Z,969.45
2018-06-22T09:38:37.932Z,969.35
2018-06-22T09:39:37.872Z,969.38
2018-06-22T09:40:37.819Z,969.25
2018-06-22T09:41:37.764Z,969.23
2018-06-22T09:42:37.775Z,969.41
2018-06-22T09:43:37.678Z,969.39
2018-06-22T09:44:37.599Z,969.41
2018-06-22T09:45:37.543Z,969.40
2018-06-22T09:46:37.488Z,969.28
2018-06-22T09:47:37.435Z,969.31
2018-06-22T09:48:37.778Z,969.36
2018-06-22T09:49:37.327Z,969.30
2018-06-22T09:50:37.270Z,969.39
2018-06-22T09:51:37.218Z,969.31
2018-06-22T09:52:37.169Z,969.43
2018-06-22T09:53:37.260Z,969.38
2018-06-22T09:54:37.049Z,969.33
2018-06-22T09:55:36.997Z,969.20
2018-06-22T09:56:36.938Z,969.24
2018-06-22T09:57:36.884Z,969.19
2018-06-22T09:58:36.831Z,969.33
2018-06-22T09:59:36.770Z,969.38
2018-06-22T10:00:36.715Z,969.28
2018-06-22T10:01:36.655Z,969.39
2018-06-22T10:02:36.603Z,969.34
2018-06-22T10:03:36.559Z,969.28
2018-06-22T10:04:36.520Z,969.31
2018-06-22T10:05:36.429Z,969.17
2018-06-22T10:06:36.374Z,969.15
2018-06-22T10:07:36.319Z,969.12
2018-06-22T10:08:36.260Z,969.16
2018-06-22T10:09:36.200Z,969.29
2018-06-22T10:10:36.147Z,969.36
2018-06-22T10:11:36.089Z,969.34
2018-06-22T10:12:36.035Z,969.31
2018-06-22T10:13:36.000Z,969.29
2018-06-22T10:14:35.915Z,969.25
2018-06-22T10:15:35.858Z,969.20
2018-06-22T10:16:35.802Z,969.20
2018-06-22T10:17:35.741Z,969.22
2018-06-22T10:18:35.686Z,969.15
2018-06-22T10:19:35.634Z,969.15
2018-06-22T10:20:35.571Z,969.25
2018-06-22T10:21:35.510Z,969.20
2018-06-22T10:22:35.459Z,969.14
2018-06-22T10:23:35.405Z,969.12
2018-06-22T10:24:35.342Z,969.10
2018-06-22T10:25:35.282Z,969.12
2018-06-22T10:26:35.224Z,969.16
2018-06-22T10:27:35.179Z,969.12
2018-06-22T10:28:35.111Z,969.20
2018-06-22T10:29:35.061Z,969.18
2018-06-22T10:30:34.993Z,969.21
2018-06-22T10:31:34.938Z,969.13
2018-06-22T10:32:34.877Z,969.18
2018-06-22T10:33:34.817Z,969.22
2018-06-22T10:34:34.761Z,969.13
2018-06-22T10:35:34.703Z,969.11
2018-06-22T10:36:34.645Z,969.10
2018-06-22T10:37:34.587Z,969.09
2018-06-22T10:38:34.541Z,968.98
2018-06-22T10:39:34.493Z,969.16
2018-06-22T10:40:34.419Z,969.09
2018-06-22T10:41:34.358Z,969.17
2018-06-22T10:42:34.302Z,969.14
2018-06-22T10:43:34.242Z,969.15
2018-06-22T10:44:34.189Z,969.17
2018-06-22T10:45:34.129Z,969.07
2018-06-22T10:46:34.073Z,969.06
2018-06-22T10:47:34.010Z,969.19
2018-06-22T10:48:33.962Z,969.14
2018-06-22T10:49:33.899Z,969.05
2018-06-22T10:50:33.844Z,969.14
2018-06-22T10:51:33.798Z,969.06
2018-06-22T10:52:33.744Z,969.11
2018-06-22T10:53:33.669Z,969.21
2018-06-22T10:54:33.636Z,969.18
2018-06-22T10:55:33.552Z,969.15
2018-06-22T10:56:33.496Z,969.04
2018-06-22T10:57:33.438Z,968.94
2018-06-22T10:58:33.376Z,969.08
2018-06-22T10:59:33.338Z,968.97
2018-06-22T11:00:33.290Z,968.93
2018-06-22T11:01:33.204Z,969.00
2018-06-22T11:02:33.148Z,969.08
2018-06-22T11:03:33.096Z,969.03
2018-06-22T11:04:33.031Z,969.05
2018-06-22T11:05:32.972Z,969.06
2018-06-22T11:06:32.913Z,969.10
2018-06-22T11:07:32.856Z,969.05
2018-06-22T11:08:32.796Z,969.09
2018-06-22T11:09:32.738Z,969.05
2018-06-22T11:10:32.681Z,968.97
2018-06-22T11:11:32.620Z,969.10
2018-06-22T11:12:32.561Z,969.04
2018-06-22T11:13:32.568Z,968.96
2018-06-22T11:14:32.442Z,968.93
2018-06-22T11:15:32.383Z,968.93
2018-06-22T11:16:32.325Z,968.91
2018-06-22T11:17:32.264Z,968.97
2018-06-22T11:18:32.209Z,968.82
2018-06-22T11:19:32.147Z,968.96
2018-06-22T11:20:32.088Z,968.89
2018-06-22T11:21:32.031Z,968.86
2018-06-22T11:22:31.972Z,968.85
2018-06-22T11:23:31.914Z,968.80
2018-06-22T11:24:31.898Z,968.83
2018-06-22T11:25:31.793Z,968.94
2018-06-22T11:26:31.734Z,968.86
2018-06-22T11:27:31.675Z,968.87
2018-06-22T11:28:31.617Z,968.89
2018-06-22T11:29:31.553Z,968.93
2018-06-22T11:30:31.496Z,968.87
2018-06-22T11:31:31.439Z,968.88
2018-06-22T11:32:31.382Z,968.92
2018-06-22T11:33:31.320Z,968.88
2018-06-22T11:34:31.257Z,968.95
2018-06-22T11:35:31.199Z,968.97
2018-06-22T11:36:31.271Z,968.95
2018-06-22T11:37:31.081Z,968.96
2018-06-22T11:38:31.020Z,968.96
2018-06-22T11:39:30.962Z,968.96
2018-06-22T11:40:30.900Z,968.97
2018-06-22T11:41:30.844Z,968.96
2018-06-22T11:42:30.782Z,968.97
2018-06-22T11:43:30.720Z,968.91
2018-06-22T11:44:30.664Z,968.96
2018-06-22T11:45:30.602Z,968.94
2018-06-22T11:46:30.547Z,968.92
2018-06-22T11:47:30.481Z,968.91
2018-06-22T11:48:30.423Z,968.83
2018-06-22T11:49:30.363Z,968.88
2018-06-22T11:50:30.306Z,968.83
2018-06-22T11:51:30.244Z,968.91
2018-06-22T11:52:30.185Z,968.95
2018-06-22T11:53:30.124Z,968.86
2018-06-22T11:54:30.062Z,968.90
2018-06-22T11:55:30.006Z,968.95
2018-06-22T11:56:29.947Z,968.96
2018-06-22T11:57:29.883Z,968.87
2018-06-22T11:58:29.828Z,968.85
2018-06-22T11:59:29.767Z,968.87
2018-06-22T12:00:29.703Z,968.86
2018-06-22T12:01:29.668Z,968.89
2018-06-22T12:02:29.586Z,968.89
2018-06-22T12:03:29.525Z,968.84
2018-06-22T12:04:29.465Z,968.95
2018-06-22T12:05:29.406Z,968.88
2018-06-22T12:06:29.347Z,968.95
2018-06-22T12:07:29.287Z,968.93
2018-06-22T12:08:29.230Z,968.98
2018-06-22T12:09:29.168Z,968.88
2018-06-22T12:10:29.106Z,968.90
2018-06-22T12:11:29.136Z,968.90
2018-06-22T12:12:28.988Z,968.92
2018-06-22T12:13:28.926Z,968.95
2018-06-22T12:14:28.863Z,968.89
2018-06-22T12:15:28.807Z,968.91
2018-06-22T12:16:28.746Z,969.02
2018-06-22T12:17:28.686Z,968.94
2018-06-22T12:18:28.626Z,968.97
2018-06-22T12:19:28.565Z,968.95
2018-06-22T12:20:28.504Z,968.95
2018-06-22T12:21:28.445Z,968.93
2018-06-22T12:22:28.385Z,969.02
2018-06-22T12:23:28.322Z,969.06
2018-06-22T12:24:28.263Z,968.96
2018-06-22T12:25:28.204Z,968.94
2018-06-22T12:26:28.144Z,968.97
2018-06-22T12:27:28.133Z,969.00